sensor_id;sensor_type;location;lat;lon;timestamp;P1;durP1;ratioP1;P2;durP2;ratioP2
33268;SDS011;19640;50.944;5.260;2023-08-12T00:00:21;12.35;;;11.10;;
33268;SDS011;19640;50.944;5.260;2023-08-12T00:02:47;12.85;;;10.00;;
33268;SDS011;19640;50.944;5.260;2023-08-12T00:05:13;14.20;;;11.52;;
33268;SDS011;19640;50.944;5.260;2023-08-12T00:07:39;13.25;;;10.55;;
33268;SDS011;19640;50.944;5.260;2023-08-12T00:10:06;13.15;;;10.15;;
33268;SDS011;19640;50.944;5.260;2023-08-12T00:12:34;14.55;;;10.27;;
33268;SDS011;19640;50.944;5.260;2023-08-12T00:15:00;16.15;;;11.23;;
33268;SDS011;19640;50.944;5.260;2023-08-12T00:17:27;19.27;;;9.57;;
33268;SDS011;19640;50.944;5.260;2023-08-12T00:19:53;14.30;;;9.90;;
33268;SDS011;19640;50.944;5.260;2023-08-12T00:22:19;13.15;;;10.05;;
33268;SDS011;19640;50.944;5.260;2023-08-12T00:24:44;13.57;;;9.52;;
33268;SDS011;19640;50.944;5.260;2023-08-12T00:27:10;13.38;;;10.20;;
33268;SDS011;19640;50.944;5.260;2023-08-12T00:29:36;13.20;;;9.27;;
33268;SDS011;19640;50.944;5.260;2023-08-12T00:32:02;16.58;;;8.43;;
33268;SDS011;19640;50.944;5.260;2023-08-12T00:34:28;15.27;;;9.43;;
33268;SDS011;19640;50.944;5.260;2023-08-12T00:36:54;10.90;;;9.90;;
33268;SDS011;19640;50.944;5.260;2023-08-12T00:39:19;13.50;;;10.30;;
33268;SDS011;19640;50.944;5.260;2023-08-12T00:41:45;14.95;;;9.43;;
33268;SDS011;19640;50.944;5.260;2023-08-12T00:44:11;16.48;;;9.23;;
33268;SDS011;19640;50.944;5.260;2023-08-12T00:46:40;13.15;;;8.68;;
33268;SDS011;19640;50.944;5.260;2023-08-12T00:49:07;11.73;;;8.55;;
33268;SDS011;19640;50.944;5.260;2023-08-12T00:51:34;10.10;;;8.07;;
33268;SDS011;19640;50.944;5.260;2023-08-12T00:54:01;12.73;;;8.50;;
33268;SDS011;19640;50.944;5.260;2023-08-12T00:56:29;11.18;;;8.10;;
33268;SDS011;19640;50.944;5.260;2023-08-12T00:58:57;12.10;;;7.75;;
33268;SDS011;19640;50.944;5.260;2023-08-12T01:01:24;9.68;;;8.57;;
33268;SDS011;19640;50.944;5.260;2023-08-12T01:03:51;6.88;;;5.03;;
33268;SDS011;19640;50.944;5.260;2023-08-12T01:06:18;7.65;;;6.05;;
33268;SDS011;19640;50.944;5.260;2023-08-12T01:08:44;10.20;;;5.57;;
33268;SDS011;19640;50.944;5.260;2023-08-12T01:11:20;9.05;;;5.93;;
33268;SDS011;19640;50.944;5.260;2023-08-12T01:16:49;7.85;;;4.53;;
33268;SDS011;19640;50.944;5.260;2023-08-12T01:19:30;7.90;;;4.78;;
33268;SDS011;19640;50.944;5.260;2023-08-12T01:22:00;7.10;;;4.22;;
33268;SDS011;19640;50.944;5.260;2023-08-12T01:24:27;6.82;;;4.75;;
33268;SDS011;19640;50.944;5.260;2023-08-12T01:27:00;5.47;;;3.83;;
33268;SDS011;19640;50.944;5.260;2023-08-12T01:29:26;4.75;;;3.58;;
33268;SDS011;19640;50.944;5.260;2023-08-12T01:31:54;8.90;;;3.92;;
33268;SDS011;19640;50.944;5.260;2023-08-12T01:37:11;4.43;;;4.03;;
33268;SDS011;19640;50.944;5.260;2023-08-12T01:39:39;4.32;;;3.65;;
33268;SDS011;19640;50.944;5.260;2023-08-12T01:42:06;10.77;;;3.97;;
33268;SDS011;19640;50.944;5.260;2023-08-12T01:44:32;5.47;;;3.80;;
33268;SDS011;19640;50.944;5.260;2023-08-12T01:46:59;8.93;;;3.90;;
33268;SDS011;19640;50.944;5.260;2023-08-12T01:49:25;6.05;;;3.38;;
33268;SDS011;19640;50.944;5.260;2023-08-12T01:51:51;3.63;;;3.30;;
33268;SDS011;19640;50.944;5.260;2023-08-12T01:54:17;4.90;;;3.53;;
33268;SDS011;19640;50.944;5.260;2023-08-12T01:56:43;4.93;;;3.97;;
33268;SDS011;19640;50.944;5.260;2023-08-12T01:59:08;5.15;;;3.33;;
33268;SDS011;19640;50.944;5.260;2023-08-12T02:01:34;5.70;;;4.28;;
33268;SDS011;19640;50.944;5.260;2023-08-12T02:03:59;7.70;;;4.30;;
33268;SDS011;19640;50.944;5.260;2023-08-12T02:06:25;5.43;;;3.58;;
33268;SDS011;19640;50.944;5.260;2023-08-12T02:08:51;11.48;;;4.10;;
33268;SDS011;19640;50.944;5.260;2023-08-12T02:11:17;5.75;;;3.33;;
33268;SDS011;19640;50.944;5.260;2023-08-12T02:13:43;6.45;;;4.35;;
33268;SDS011;19640;50.944;5.260;2023-08-12T02:16:09;5.00;;;4.03;;
33268;SDS011;19640;50.944;5.260;2023-08-12T02:18:34;5.30;;;3.45;;
33268;SDS011;19640;50.944;5.260;2023-08-12T02:21:00;6.03;;;3.60;;
33268;SDS011;19640;50.944;5.260;2023-08-12T02:23:26;13.20;;;3.60;;
33268;SDS011;19640;50.944;5.260;2023-08-12T02:25:52;7.22;;;3.85;;
33268;SDS011;19640;50.944;5.260;2023-08-12T02:28:19;4.40;;;3.53;;
33268;SDS011;19640;50.944;5.260;2023-08-12T02:30:45;4.15;;;3.75;;
33268;SDS011;19640;50.944;5.260;2023-08-12T02:33:11;5.35;;;3.63;;
33268;SDS011;19640;50.944;5.260;2023-08-12T02:35:36;6.65;;;3.95;;
33268;SDS011;19640;50.944;5.260;2023-08-12T02:38:03;5.93;;;3.90;;
33268;SDS011;19640;50.944;5.260;2023-08-12T02:40:29;6.07;;;3.45;;
33268;SDS011;19640;50.944;5.260;2023-08-12T02:42:54;6.47;;;3.50;;
33268;SDS011;19640;50.944;5.260;2023-08-12T02:45:20;3.78;;;3.47;;
33268;SDS011;19640;50.944;5.260;2023-08-12T02:47:46;5.82;;;3.55;;
33268;SDS011;19640;50.944;5.260;2023-08-12T02:50:11;7.95;;;4.13;;
33268;SDS011;19640;50.944;5.260;2023-08-12T02:52:37;6.95;;;4.13;;
33268;SDS011;19640;50.944;5.260;2023-08-12T02:55:03;7.90;;;3.88;;
33268;SDS011;19640;50.944;5.260;2023-08-12T02:57:29;11.10;;;4.18;;
33268;SDS011;19640;50.944;5.260;2023-08-12T02:59:54;5.03;;;3.97;;
33268;SDS011;19640;50.944;5.260;2023-08-12T03:02:20;9.18;;;4.85;;
33268;SDS011;19640;50.944;5.260;2023-08-12T03:04:46;5.93;;;4.28;;
33268;SDS011;19640;50.944;5.260;2023-08-12T03:07:11;7.85;;;4.57;;
33268;SDS011;19640;50.944;5.260;2023-08-12T03:09:37;6.18;;;4.53;;
33268;SDS011;19640;50.944;5.260;2023-08-12T03:12:03;6.32;;;3.90;;
33268;SDS011;19640;50.944;5.260;2023-08-12T03:14:29;8.70;;;4.20;;
33268;SDS011;19640;50.944;5.260;2023-08-12T03:16:55;7.88;;;4.65;;
33268;SDS011;19640;50.944;5.260;2023-08-12T03:19:21;9.50;;;5.15;;
33268;SDS011;19640;50.944;5.260;2023-08-12T03:21:46;5.20;;;4.40;;
33268;SDS011;19640;50.944;5.260;2023-08-12T03:24:12;4.75;;;4.35;;
33268;SDS011;19640;50.944;5.260;2023-08-12T03:26:39;8.35;;;5.05;;
33268;SDS011;19640;50.944;5.260;2023-08-12T03:29:04;7.70;;;4.97;;
33268;SDS011;19640;50.944;5.260;2023-08-12T03:31:30;8.98;;;6.43;;
33268;SDS011;19640;50.944;5.260;2023-08-12T03:33:56;10.95;;;6.93;;
33268;SDS011;19640;50.944;5.260;2023-08-12T03:36:21;12.77;;;7.28;;
33268;SDS011;19640;50.944;5.260;2023-08-12T03:38:47;9.50;;;7.93;;
33268;SDS011;19640;50.944;5.260;2023-08-12T03:41:13;8.40;;;7.70;;
33268;SDS011;19640;50.944;5.260;2023-08-12T03:43:38;10.70;;;8.00;;
33268;SDS011;19640;50.944;5.260;2023-08-12T03:46:04;10.80;;;9.20;;
33268;SDS011;19640;50.944;5.260;2023-08-12T03:48:30;14.60;;;8.57;;
33268;SDS011;19640;50.944;5.260;2023-08-12T03:50:57;14.73;;;8.65;;
33268;SDS011;19640;50.944;5.260;2023-08-12T03:53:22;14.90;;;8.80;;
33268;SDS011;19640;50.944;5.260;2023-08-12T03:55:48;13.43;;;8.93;;
33268;SDS011;19640;50.944;5.260;2023-08-12T03:58:14;18.70;;;9.35;;
33268;SDS011;19640;50.944;5.260;2023-08-12T04:00:42;13.07;;;9.80;;
33268;SDS011;19640;50.944;5.260;2023-08-12T04:03:08;16.75;;;10.73;;
33268;SDS011;19640;50.944;5.260;2023-08-12T04:05:34;21.23;;;10.80;;
33268;SDS011;19640;50.944;5.260;2023-08-12T04:08:00;19.88;;;10.38;;
33268;SDS011;19640;50.944;5.260;2023-08-12T04:10:26;14.93;;;12.00;;
33268;SDS011;19640;50.944;5.260;2023-08-12T04:12:51;17.92;;;11.85;;
33268;SDS011;19640;50.944;5.260;2023-08-12T04:15:17;18.73;;;11.40;;
33268;SDS011;19640;50.944;5.260;2023-08-12T04:17:42;13.02;;;10.82;;
33268;SDS011;19640;50.944;5.260;2023-08-12T04:20:08;28.52;;;13.63;;
33268;SDS011;19640;50.944;5.260;2023-08-12T04:22:34;19.00;;;13.48;;
33268;SDS011;19640;50.944;5.260;2023-08-12T04:25:00;17.55;;;12.57;;
33268;SDS011;19640;50.944;5.260;2023-08-12T04:27:27;18.55;;;14.20;;
33268;SDS011;19640;50.944;5.260;2023-08-12T04:29:52;28.83;;;13.52;;
33268;SDS011;19640;50.944;5.260;2023-08-12T04:32:18;14.68;;;13.00;;
33268;SDS011;19640;50.944;5.260;2023-08-12T04:34:45;19.90;;;14.82;;
33268;SDS011;19640;50.944;5.260;2023-08-12T04:37:11;24.20;;;16.15;;
33268;SDS011;19640;50.944;5.260;2023-08-12T04:39:37;26.27;;;16.70;;
33268;SDS011;19640;50.944;5.260;2023-08-12T04:42:02;28.15;;;16.85;;
33268;SDS011;19640;50.944;5.260;2023-08-12T04:44:28;27.55;;;16.95;;
33268;SDS011;19640;50.944;5.260;2023-08-12T04:46:54;25.73;;;16.63;;
33268;SDS011;19640;50.944;5.260;2023-08-12T04:49:20;20.33;;;16.17;;
33268;SDS011;19640;50.944;5.260;2023-08-12T04:51:46;28.05;;;17.50;;
33268;SDS011;19640;50.944;5.260;2023-08-12T04:54:11;24.30;;;17.40;;
33268;SDS011;19640;50.944;5.260;2023-08-12T04:56:37;26.52;;;17.02;;
33268;SDS011;19640;50.944;5.260;2023-08-12T04:59:03;22.75;;;16.55;;
33268;SDS011;19640;50.944;5.260;2023-08-12T05:01:29;26.63;;;16.42;;
33268;SDS011;19640;50.944;5.260;2023-08-12T05:03:54;19.98;;;15.20;;
33268;SDS011;19640;50.944;5.260;2023-08-12T05:06:20;21.70;;;14.45;;
33268;SDS011;19640;50.944;5.260;2023-08-12T05:08:46;16.45;;;14.38;;
33268;SDS011;19640;50.944;5.260;2023-08-12T05:11:11;17.73;;;14.20;;
33268;SDS011;19640;50.944;5.260;2023-08-12T05:13:37;17.30;;;14.13;;
33268;SDS011;19640;50.944;5.260;2023-08-12T05:16:03;14.73;;;13.00;;
33268;SDS011;19640;50.944;5.260;2023-08-12T05:18:31;15.25;;;12.90;;
33268;SDS011;19640;50.944;5.260;2023-08-12T05:20:56;18.05;;;13.25;;
33268;SDS011;19640;50.944;5.260;2023-08-12T05:23:23;18.33;;;12.20;;
33268;SDS011;19640;50.944;5.260;2023-08-12T05:25:49;15.43;;;11.20;;
33268;SDS011;19640;50.944;5.260;2023-08-12T05:28:15;14.82;;;11.85;;
33268;SDS011;19640;50.944;5.260;2023-08-12T05:30:40;11.90;;;10.40;;
33268;SDS011;19640;50.944;5.260;2023-08-12T05:33:06;13.40;;;10.55;;
33268;SDS011;19640;50.944;5.260;2023-08-12T05:35:32;14.32;;;10.85;;
33268;SDS011;19640;50.944;5.260;2023-08-12T05:37:59;13.00;;;9.93;;
33268;SDS011;19640;50.944;5.260;2023-08-12T05:40:25;9.95;;;8.98;;
33268;SDS011;19640;50.944;5.260;2023-08-12T05:42:51;9.63;;;8.68;;
33268;SDS011;19640;50.944;5.260;2023-08-12T05:45:16;11.10;;;8.30;;
33268;SDS011;19640;50.944;5.260;2023-08-12T05:47:42;9.50;;;8.30;;
33268;SDS011;19640;50.944;5.260;2023-08-12T05:50:08;8.52;;;7.63;;
33268;SDS011;19640;50.944;5.260;2023-08-12T05:52:34;10.98;;;7.55;;
33268;SDS011;19640;50.944;5.260;2023-08-12T05:54:59;11.18;;;7.63;;
33268;SDS011;19640;50.944;5.260;2023-08-12T05:57:25;11.20;;;8.25;;
33268;SDS011;19640;50.944;5.260;2023-08-12T05:59:51;10.00;;;6.97;;
33268;SDS011;19640;50.944;5.260;2023-08-12T06:02:17;8.10;;;7.30;;
33268;SDS011;19640;50.944;5.260;2023-08-12T06:04:43;7.55;;;6.80;;
33268;SDS011;19640;50.944;5.260;2023-08-12T06:07:09;9.65;;;7.22;;
33268;SDS011;19640;50.944;5.260;2023-08-12T06:09:35;7.85;;;6.15;;
33268;SDS011;19640;50.944;5.260;2023-08-12T06:12:00;7.70;;;6.90;;
33268;SDS011;19640;50.944;5.260;2023-08-12T06:14:26;6.60;;;6.00;;
33268;SDS011;19640;50.944;5.260;2023-08-12T06:16:52;6.80;;;6.15;;
33268;SDS011;19640;50.944;5.260;2023-08-12T06:19:18;5.88;;;5.38;;
33268;SDS011;19640;50.944;5.260;2023-08-12T06:21:43;8.15;;;5.60;;
33268;SDS011;19640;50.944;5.260;2023-08-12T06:24:09;5.78;;;5.38;;
33268;SDS011;19640;50.944;5.260;2023-08-12T06:26:34;5.88;;;5.38;;
33268;SDS011;19640;50.944;5.260;2023-08-12T06:29:00;7.18;;;5.38;;
33268;SDS011;19640;50.944;5.260;2023-08-12T06:31:26;6.20;;;5.60;;
33268;SDS011;19640;50.944;5.260;2023-08-12T06:33:51;5.57;;;5.07;;
33268;SDS011;19640;50.944;5.260;2023-08-12T06:36:17;5.22;;;4.65;;
33268;SDS011;19640;50.944;5.260;2023-08-12T06:38:43;6.68;;;5.07;;
33268;SDS011;19640;50.944;5.260;2023-08-12T06:41:09;7.57;;;4.80;;
33268;SDS011;19640;50.944;5.260;2023-08-12T06:43:35;5.22;;;4.63;;
33268;SDS011;19640;50.944;5.260;2023-08-12T06:46:01;4.82;;;4.40;;
33268;SDS011;19640;50.944;5.260;2023-08-12T06:48:28;6.30;;;4.50;;
33268;SDS011;19640;50.944;5.260;2023-08-12T06:50:54;6.15;;;3.92;;
33268;SDS011;19640;50.944;5.260;2023-08-12T06:53:20;7.00;;;3.05;;
33268;SDS011;19640;50.944;5.260;2023-08-12T06:55:46;7.20;;;3.28;;
33268;SDS011;19640;50.944;5.260;2023-08-12T06:58:13;3.92;;;3.45;;
33268;SDS011;19640;50.944;5.260;2023-08-12T07:00:40;4.28;;;3.30;;
33268;SDS011;19640;50.944;5.260;2023-08-12T07:03:05;4.72;;;3.15;;
33268;SDS011;19640;50.944;5.260;2023-08-12T07:05:31;3.83;;;2.70;;
33268;SDS011;19640;50.944;5.260;2023-08-12T07:07:56;2.42;;;2.20;;
33268;SDS011;19640;50.944;5.260;2023-08-12T07:10:22;4.57;;;2.17;;
33268;SDS011;19640;50.944;5.260;2023-08-12T07:12:48;2.65;;;2.13;;
33268;SDS011;19640;50.944;5.260;2023-08-12T07:15:16;2.15;;;2.03;;
33268;SDS011;19640;50.944;5.260;2023-08-12T07:17:41;3.13;;;2.42;;
33268;SDS011;19640;50.944;5.260;2023-08-12T07:20:07;1.88;;;1.67;;
33268;SDS011;19640;50.944;5.260;2023-08-12T07:22:33;2.72;;;2.00;;
33268;SDS011;19640;50.944;5.260;2023-08-12T07:24:59;1.67;;;1.58;;
33268;SDS011;19640;50.944;5.260;2023-08-12T07:27:25;1.70;;;1.42;;
33268;SDS011;19640;50.944;5.260;2023-08-12T07:29:51;1.73;;;1.35;;
33268;SDS011;19640;50.944;5.260;2023-08-12T07:32:17;1.88;;;1.33;;
33268;SDS011;19640;50.944;5.260;2023-08-12T07:34:45;1.52;;;1.30;;
33268;SDS011;19640;50.944;5.260;2023-08-12T07:37:11;1.52;;;0.90;;
33268;SDS011;19640;50.944;5.260;2023-08-12T07:39:36;1.15;;;1.00;;
33268;SDS011;19640;50.944;5.260;2023-08-12T07:42:02;2.05;;;1.00;;
33268;SDS011;19640;50.944;5.260;2023-08-12T07:44:28;0.88;;;0.60;;
33268;SDS011;19640;50.944;5.260;2023-08-12T07:46:54;0.60;;;0.60;;
33268;SDS011;19640;50.944;5.260;2023-08-12T07:49:21;0.55;;;0.55;;
33268;SDS011;19640;50.944;5.260;2023-08-12T07:51:47;1.50;;;0.50;;
33268;SDS011;19640;50.944;5.260;2023-08-12T07:54:12;0.85;;;0.50;;
33268;SDS011;19640;50.944;5.260;2023-08-12T07:56:38;0.40;;;0.40;;
33268;SDS011;19640;50.944;5.260;2023-08-12T07:59:04;1.30;;;1.20;;
33268;SDS011;19640;50.944;5.260;2023-08-12T08:01:29;0.88;;;0.50;;
33268;SDS011;19640;50.944;5.260;2023-08-12T08:03:55;0.52;;;0.30;;
33268;SDS011;19640;50.944;5.260;2023-08-12T08:06:22;0.40;;;0.40;;
33268;SDS011;19640;50.944;5.260;2023-08-12T08:08:51;0.40;;;0.40;;
33268;SDS011;19640;50.944;5.260;2023-08-12T08:11:17;0.20;;;0.20;;
33268;SDS011;19640;50.944;5.260;2023-08-12T08:13:42;0.28;;;0.28;;
33268;SDS011;19640;50.944;5.260;2023-08-12T08:16:08;1.02;;;0.40;;
33268;SDS011;19640;50.944;5.260;2023-08-12T08:18:34;0.28;;;0.20;;
33268;SDS011;19640;50.944;5.260;2023-08-12T08:20:59;0.00;;;0.00;;
33268;SDS011;19640;50.944;5.260;2023-08-12T08:23:26;0.17;;;0.17;;
33268;SDS011;19640;50.944;5.260;2023-08-12T08:25:52;1.85;;;0.93;;
33268;SDS011;19640;50.944;5.260;2023-08-12T08:28:19;2.13;;;0.20;;
33268;SDS011;19640;50.944;5.260;2023-08-12T08:30:44;0.40;;;0.20;;
33268;SDS011;19640;50.944;5.260;2023-08-12T08:33:10;0.68;;;0.40;;
33268;SDS011;19640;50.944;5.260;2023-08-12T08:35:36;0.20;;;0.15;;
33268;SDS011;19640;50.944;5.260;2023-08-12T08:38:01;1.98;;;0.10;;
33268;SDS011;19640;50.944;5.260;2023-08-12T08:40:27;0.30;;;0.10;;
33268;SDS011;19640;50.944;5.260;2023-08-12T08:42:53;1.60;;;0.20;;
33268;SDS011;19640;50.944;5.260;2023-08-12T08:45:19;0.70;;;0.25;;
33268;SDS011;19640;50.944;5.260;2023-08-12T08:47:46;1.70;;;0.10;;
33268;SDS011;19640;50.944;5.260;2023-08-12T08:50:14;0.52;;;0.10;;
33268;SDS011;19640;50.944;5.260;2023-08-12T08:52:40;0.80;;;0.20;;
33268;SDS011;19640;50.944;5.260;2023-08-12T08:55:08;0.30;;;0.15;;
33268;SDS011;19640;50.944;5.260;2023-08-12T08:57:34;0.45;;;0.20;;
33268;SDS011;19640;50.944;5.260;2023-08-12T09:00:02;0.17;;;0.17;;
33268;SDS011;19640;50.944;5.260;2023-08-12T09:02:32;0.10;;;0.10;;
33268;SDS011;19640;50.944;5.260;2023-08-12T09:04:58;0.13;;;0.10;;
33268;SDS011;19640;50.944;5.260;2023-08-12T09:07:25;0.75;;;0.17;;
33268;SDS011;19640;50.944;5.260;2023-08-12T09:09:51;0.30;;;0.25;;
33268;SDS011;19640;50.944;5.260;2023-08-12T09:12:17;0.20;;;0.20;;
33268;SDS011;19640;50.944;5.260;2023-08-12T09:14:44;0.75;;;0.28;;
33268;SDS011;19640;50.944;5.260;2023-08-12T09:17:10;0.28;;;0.20;;
33268;SDS011;19640;50.944;5.260;2023-08-12T09:19:36;0.63;;;0.25;;
33268;SDS011;19640;50.944;5.260;2023-08-12T09:22:05;0.40;;;0.20;;
33268;SDS011;19640;50.944;5.260;2023-08-12T09:24:34;0.55;;;0.32;;
33268;SDS011;19640;50.944;5.260;2023-08-12T09:27:00;0.45;;;0.22;;
33268;SDS011;19640;50.944;5.260;2023-08-12T09:29:29;0.32;;;0.30;;
33268;SDS011;19640;50.944;5.260;2023-08-12T09:32:06;0.40;;;0.38;;
33268;SDS011;19640;50.944;5.260;2023-08-12T09:34:36;0.57;;;0.50;;
33268;SDS011;19640;50.944;5.260;2023-08-12T09:37:02;0.70;;;0.63;;
33268;SDS011;19640;50.944;5.260;2023-08-12T09:39:28;0.50;;;0.50;;
33268;SDS011;19640;50.944;5.260;2023-08-12T09:41:55;0.90;;;0.50;;
33268;SDS011;19640;50.944;5.260;2023-08-12T09:44:21;0.63;;;0.63;;
33268;SDS011;19640;50.944;5.260;2023-08-12T09:46:47;1.55;;;0.40;;
33268;SDS011;19640;50.944;5.260;2023-08-12T09:49:13;0.70;;;0.65;;
33268;SDS011;19640;50.944;5.260;2023-08-12T09:51:40;0.57;;;0.50;;
33268;SDS011;19640;50.944;5.260;2023-08-12T09:54:08;1.13;;;0.55;;
33268;SDS011;19640;50.944;5.260;2023-08-12T09:56:36;0.50;;;0.40;;
33268;SDS011;19640;50.944;5.260;2023-08-12T09:59:07;0.95;;;0.50;;
33268;SDS011;19640;50.944;5.260;2023-08-12T10:01:34;0.38;;;0.38;;
33268;SDS011;19640;50.944;5.260;2023-08-12T10:04:01;0.63;;;0.40;;
33268;SDS011;19640;50.944;5.260;2023-08-12T10:06:30;0.50;;;0.50;;
33268;SDS011;19640;50.944;5.260;2023-08-12T10:08:58;0.73;;;0.40;;
33268;SDS011;19640;50.944;5.260;2023-08-12T10:11:23;0.70;;;0.50;;
33268;SDS011;19640;50.944;5.260;2023-08-12T10:13:50;0.60;;;0.40;;
33268;SDS011;19640;50.944;5.260;2023-08-12T10:16:16;1.65;;;0.40;;
33268;SDS011;19640;50.944;5.260;2023-08-12T10:18:43;0.95;;;0.50;;
33268;SDS011;19640;50.944;5.260;2023-08-12T10:21:11;0.60;;;0.30;;
33268;SDS011;19640;50.944;5.260;2023-08-12T10:23:39;0.68;;;0.38;;
33268;SDS011;19640;50.944;5.260;2023-08-12T10:26:07;0.40;;;0.40;;
33268;SDS011;19640;50.944;5.260;2023-08-12T10:28:33;1.20;;;0.52;;
33268;SDS011;19640;50.944;5.260;2023-08-12T10:31:03;0.60;;;0.60;;
33268;SDS011;19640;50.944;5.260;2023-08-12T10:33:36;0.60;;;0.60;;
33268;SDS011;19640;50.944;5.260;2023-08-12T10:36:03;3.33;;;0.57;;
33268;SDS011;19640;50.944;5.260;2023-08-12T10:38:30;0.50;;;0.50;;
33268;SDS011;19640;50.944;5.260;2023-08-12T10:46:24;0.90;;;0.90;;
33268;SDS011;19640;50.944;5.260;2023-08-12T10:54:30;1.67;;;1.00;;
33268;SDS011;19640;50.944;5.260;2023-08-12T11:02:26;2.25;;;1.27;;
33268;SDS011;19640;50.944;5.260;2023-08-12T11:07:41;1.90;;;1.10;;
33268;SDS011;19640;50.944;5.260;2023-08-12T11:10:13;1.30;;;0.98;;
33268;SDS011;19640;50.944;5.260;2023-08-12T11:12:49;2.17;;;1.17;;
33268;SDS011;19640;50.944;5.260;2023-08-12T11:15:40;2.10;;;1.20;;
33268;SDS011;19640;50.944;5.260;2023-08-12T11:18:13;3.22;;;1.00;;
33268;SDS011;19640;50.944;5.260;2023-08-12T11:20:43;2.22;;;1.23;;
33268;SDS011;19640;50.944;5.260;2023-08-12T11:23:11;1.88;;;1.30;;
33268;SDS011;19640;50.944;5.260;2023-08-12T11:25:38;1.50;;;0.90;;
33268;SDS011;19640;50.944;5.260;2023-08-12T11:28:05;2.28;;;1.23;;
33268;SDS011;19640;50.944;5.260;2023-08-12T11:30:31;1.10;;;0.98;;
33268;SDS011;19640;50.944;5.260;2023-08-12T11:32:57;2.35;;;1.10;;
33268;SDS011;19640;50.944;5.260;2023-08-12T11:35:24;1.33;;;1.00;;
33268;SDS011;19640;50.944;5.260;2023-08-12T11:37:51;1.50;;;1.30;;
33268;SDS011;19640;50.944;5.260;2023-08-12T11:40:19;2.28;;;1.00;;
33268;SDS011;19640;50.944;5.260;2023-08-12T11:42:46;2.17;;;1.00;;
33268;SDS011;19640;50.944;5.260;2023-08-12T11:45:13;1.35;;;0.68;;
33268;SDS011;19640;50.944;5.260;2023-08-12T11:47:41;1.48;;;0.55;;
33268;SDS011;19640;50.944;5.260;2023-08-12T11:50:08;2.72;;;0.85;;
33268;SDS011;19640;50.944;5.260;2023-08-12T11:52:35;2.03;;;1.02;;
33268;SDS011;19640;50.944;5.260;2023-08-12T11:55:02;2.65;;;1.00;;
33268;SDS011;19640;50.944;5.260;2023-08-12T11:57:28;3.92;;;0.77;;
33268;SDS011;19640;50.944;5.260;2023-08-12T12:00:00;2.25;;;0.60;;
33268;SDS011;19640;50.944;5.260;2023-08-12T12:02:29;1.95;;;0.68;;
33268;SDS011;19640;50.944;5.260;2023-08-12T12:04:55;1.73;;;0.68;;
33268;SDS011;19640;50.944;5.260;2023-08-12T12:07:22;1.52;;;0.88;;
33268;SDS011;19640;50.944;5.260;2023-08-12T12:09:52;2.10;;;0.80;;
33268;SDS011;19640;50.944;5.260;2023-08-12T12:12:25;3.03;;;0.85;;
33268;SDS011;19640;50.944;5.260;2023-08-12T12:17:23;1.70;;;0.70;;
33268;SDS011;19640;50.944;5.260;2023-08-12T12:20:00;3.88;;;1.20;;
33268;SDS011;19640;50.944;5.260;2023-08-12T12:22:28;2.30;;;0.90;;
33268;SDS011;19640;50.944;5.260;2023-08-12T12:24:57;5.07;;;0.70;;
33268;SDS011;19640;50.944;5.260;2023-08-12T12:27:31;2.17;;;0.80;;
33268;SDS011;19640;50.944;5.260;2023-08-12T12:29:57;3.13;;;1.05;;
33268;SDS011;19640;50.944;5.260;2023-08-12T12:32:22;3.08;;;0.90;;
33268;SDS011;19640;50.944;5.260;2023-08-12T12:34:48;1.83;;;0.80;;
33268;SDS011;19640;50.944;5.260;2023-08-12T12:37:14;2.97;;;1.10;;
33268;SDS011;19640;50.944;5.260;2023-08-12T12:39:40;3.00;;;0.98;;
33268;SDS011;19640;50.944;5.260;2023-08-12T12:42:06;3.22;;;0.90;;
33268;SDS011;19640;50.944;5.260;2023-08-12T12:44:32;1.88;;;0.70;;
33268;SDS011;19640;50.944;5.260;2023-08-12T12:46:58;4.53;;;1.00;;
33268;SDS011;19640;50.944;5.260;2023-08-12T12:49:23;1.80;;;0.80;;
33268;SDS011;19640;50.944;5.260;2023-08-12T12:51:49;2.67;;;0.70;;
33268;SDS011;19640;50.944;5.260;2023-08-12T12:54:15;4.68;;;1.60;;
33268;SDS011;19640;50.944;5.260;2023-08-12T12:56:41;3.40;;;1.30;;
33268;SDS011;19640;50.944;5.260;2023-08-12T12:59:09;3.17;;;1.20;;
33268;SDS011;19640;50.944;5.260;2023-08-12T13:01:35;4.32;;;0.98;;
33268;SDS011;19640;50.944;5.260;2023-08-12T13:04:01;6.78;;;1.20;;
33268;SDS011;19640;50.944;5.260;2023-08-12T13:06:27;3.33;;;0.98;;
33268;SDS011;19640;50.944;5.260;2023-08-12T13:08:53;1.60;;;0.80;;
33268;SDS011;19640;50.944;5.260;2023-08-12T13:11:19;3.85;;;0.80;;
33268;SDS011;19640;50.944;5.260;2023-08-12T13:13:45;3.75;;;1.20;;
33268;SDS011;19640;50.944;5.260;2023-08-12T13:16:10;2.40;;;0.90;;
33268;SDS011;19640;50.944;5.260;2023-08-12T13:18:36;2.30;;;0.80;;
33268;SDS011;19640;50.944;5.260;2023-08-12T13:21:02;3.45;;;0.60;;
33268;SDS011;19640;50.944;5.260;2023-08-12T13:23:27;4.00;;;0.80;;
33268;SDS011;19640;50.944;5.260;2023-08-12T13:25:53;2.78;;;0.93;;
33268;SDS011;19640;50.944;5.260;2023-08-12T13:28:19;2.55;;;0.93;;
33268;SDS011;19640;50.944;5.260;2023-08-12T13:30:45;1.25;;;0.50;;
33268;SDS011;19640;50.944;5.260;2023-08-12T13:33:11;3.10;;;0.82;;
33268;SDS011;19640;50.944;5.260;2023-08-12T13:35:37;1.25;;;0.70;;
33268;SDS011;19640;50.944;5.260;2023-08-12T13:38:02;3.25;;;0.80;;
33268;SDS011;19640;50.944;5.260;2023-08-12T13:40:28;3.05;;;1.25;;
33268;SDS011;19640;50.944;5.260;2023-08-12T13:42:54;3.05;;;0.77;;
33268;SDS011;19640;50.944;5.260;2023-08-12T13:45:20;1.98;;;0.60;;
33268;SDS011;19640;50.944;5.260;2023-08-12T13:47:46;2.38;;;0.70;;
33268;SDS011;19640;50.944;5.260;2023-08-12T13:50:12;1.38;;;0.63;;
33268;SDS011;19640;50.944;5.260;2023-08-12T13:52:38;2.05;;;0.68;;
33268;SDS011;19640;50.944;5.260;2023-08-12T13:55:05;2.70;;;0.98;;
33268;SDS011;19640;50.944;5.260;2023-08-12T13:57:31;1.80;;;0.65;;
33268;SDS011;19640;50.944;5.260;2023-08-12T13:59:57;4.30;;;0.90;;
33268;SDS011;19640;50.944;5.260;2023-08-12T14:02:25;3.78;;;0.70;;
33268;SDS011;19640;50.944;5.260;2023-08-12T14:04:50;1.67;;;0.70;;
33268;SDS011;19640;50.944;5.260;2023-08-12T14:07:16;1.67;;;0.52;;
33268;SDS011;19640;50.944;5.260;2023-08-12T14:09:45;3.88;;;0.95;;
33268;SDS011;19640;50.944;5.260;2023-08-12T14:12:11;2.72;;;0.90;;
33268;SDS011;19640;50.944;5.260;2023-08-12T14:14:37;1.98;;;0.90;;
33268;SDS011;19640;50.944;5.260;2023-08-12T14:17:02;2.95;;;1.30;;
33268;SDS011;19640;50.944;5.260;2023-08-12T14:19:28;1.63;;;0.60;;
33268;SDS011;19640;50.944;5.260;2023-08-12T14:21:54;1.60;;;0.60;;
33268;SDS011;19640;50.944;5.260;2023-08-12T14:24:19;3.58;;;0.90;;
33268;SDS011;19640;50.944;5.260;2023-08-12T14:26:46;3.65;;;0.93;;
33268;SDS011;19640;50.944;5.260;2023-08-12T14:29:12;2.55;;;0.90;;
33268;SDS011;19640;50.944;5.260;2023-08-12T14:31:37;2.42;;;1.10;;
33268;SDS011;19640;50.944;5.260;2023-08-12T14:34:03;2.30;;;0.90;;
33268;SDS011;19640;50.944;5.260;2023-08-12T14:36:30;3.13;;;1.38;;
33268;SDS011;19640;50.944;5.260;2023-08-12T14:38:56;2.70;;;1.10;;
33268;SDS011;19640;50.944;5.260;2023-08-12T14:41:22;2.70;;;1.00;;
33268;SDS011;19640;50.944;5.260;2023-08-12T14:43:48;2.83;;;1.00;;
33268;SDS011;19640;50.944;5.260;2023-08-12T14:46:13;1.88;;;1.00;;
33268;SDS011;19640;50.944;5.260;2023-08-12T14:48:39;3.50;;;0.75;;
33268;SDS011;19640;50.944;5.260;2023-08-12T14:51:06;2.42;;;1.00;;
33268;SDS011;19640;50.944;5.260;2023-08-12T14:53:31;2.72;;;1.20;;
33268;SDS011;19640;50.944;5.260;2023-08-12T14:55:57;5.15;;;1.30;;
33268;SDS011;19640;50.944;5.260;2023-08-12T14:58:22;1.65;;;0.60;;
33268;SDS011;19640;50.944;5.260;2023-08-12T15:00:48;1.63;;;0.85;;
33268;SDS011;19640;50.944;5.260;2023-08-12T15:03:14;1.70;;;0.82;;
33268;SDS011;19640;50.944;5.260;2023-08-12T15:05:40;3.08;;;0.88;;